Time;durP1;ratioP1;P1;durP2;ratioP2;P2;SDS_P1;SDS_P2;PMS_P1;PMS_P2;Temp;Humidity;BMP_temperature;BMP_pressure;BME280_temperature;BME280_humidity;BME280_pressure;Samples;Min_cycle;Max_cycle;Signal;HPM_P1;HPM_P2
2021/10/03 00:02:23;;;;;;;19.30;14.35;;;;;;;;;;4773292;28;20042;-82
2021/10/03 00:04:50;;;;;;;20.45;15.40;;;;;;;;;;4765958;28;20807;-79
2021/10/03 00:07:21;;;;;;;18.95;13.90;;;;;;;;;;4782804;28;20076;-80
2021/10/03 00:09:49;;;;;;;21.13;15.50;;;;;;;;;;4785580;28;21356;-80
2021/10/03 00:12:15;;;;;;;17.73;13.70;;;;;;;;;;4760459;28;20125;-80
2021/10/03 00:14:42;;;;;;;19.83;14.88;;;;;;;;;;4759784;28;20160;-79
2021/10/03 00:17:08;;;;;;;20.58;14.32;;;;;;;;;;4767304;28;20046;-80
2021/10/03 00:19:35;;;;;;;18.20;13.52;;;;;;;;;;4772587;28;21458;-82
2021/10/03 00:22:02;;;;;;;22.52;15.95;;;;;;;;;;4757460;28;20045;-81
2021/10/03 00:24:30;;;;;;;22.00;15.07;;;;;;;;;;4757983;28;20128;-81
2021/10/03 00:26:56;;;;;;;22.65;15.43;;;;;;;;;;4897952;28;20170;-80
2021/10/03 00:29:23;;;;;;;19.73;15.07;;;;;;;;;;4946781;28;20030;-81
2021/10/03 00:31:51;;;;;;;22.30;14.80;;;;;;;;;;4965706;28;20030;-81
2021/10/03 00:34:19;;;;;;;22.67;16.17;;;;;;;;;;4959229;28;20030;-80
2021/10/03 00:36:45;;;;;;;20.73;15.20;;;;;;;;;;4949744;28;20038;-81
2021/10/03 00:39:12;;;;;;;19.73;16.23;;;;;;;;;;4961466;28;20076;-81
2021/10/03 00:41:38;;;;;;;18.08;14.73;;;;;;;;;;4959145;28;20125;-79
2021/10/03 00:44:05;;;;;;;20.77;15.52;;;;;;;;;;4961934;28;20696;-79
2021/10/03 00:46:31;;;;;;;20.63;16.10;;;;;;;;;;4948515;28;20054;-80
2021/10/03 00:48:58;;;;;;;18.83;14.68;;;;;;;;;;4960251;28;20031;-82
2021/10/03 00:51:25;;;;;;;18.77;14.50;;;;;;;;;;4948057;28;20462;-81
2021/10/03 00:53:52;;;;;;;18.30;14.90;;;;;;;;;;4954146;28;20034;-81
2021/10/03 00:56:19;;;;;;;18.88;15.10;;;;;;;;;;4939165;28;20037;-81
2021/10/03 00:58:45;;;;;;;20.35;15.43;;;;;;;;;;4973270;28;20061;-81
2021/10/03 01:01:12;;;;;;;17.38;13.20;;;;;;;;;;4973799;28;20029;-81
2021/10/03 01:03:40;;;;;;;21.38;15.75;;;;;;;;;;4982636;28;20041;-81
2021/10/03 01:06:07;;;;;;;21.35;15.73;;;;;;;;;;4967311;28;20121;-82
2021/10/03 01:08:34;;;;;;;21.73;15.98;;;;;;;;;;4962460;28;20475;-82
2021/10/03 01:11:02;;;;;;;21.95;16.20;;;;;;;;;;4978641;28;20026;-81
2021/10/03 01:13:29;;;;;;;20.90;16.45;;;;;;;;;;4974282;28;20046;-81
2021/10/03 01:15:56;;;;;;;18.77;15.23;;;;;;;;;;4962908;28;20041;-80
2021/10/03 01:18:24;;;;;;;20.83;15.68;;;;;;;;;;4979716;28;20078;-81
2021/10/03 01:20:50;;;;;;;24.15;18.00;;;;;;;;;;4972796;28;20038;-81
2021/10/03 01:23:17;;;;;;;22.02;16.55;;;;;;;;;;4981033;28;20030;-82
2021/10/03 01:25:45;;;;;;;20.40;16.02;;;;;;;;;;4981999;28;20030;-80
2021/10/03 01:28:14;;;;;;;18.25;14.20;;;;;;;;;;4982770;28;20041;-81
2021/10/03 01:30:42;;;;;;;18.17;14.23;;;;;;;;;;4989436;28;20088;-81
2021/10/03 01:33:09;;;;;;;20.20;15.18;;;;;;;;;;4980389;28;20037;-81
2021/10/03 01:35:36;;;;;;;19.17;14.82;;;;;;;;;;4968467;28;20057;-81
2021/10/03 01:38:04;;;;;;;18.13;13.20;;;;;;;;;;4988682;28;20026;-80
2021/10/03 01:40:31;;;;;;;20.65;15.23;;;;;;;;;;5007606;28;20093;-81
2021/10/03 01:42:58;;;;;;;19.50;14.48;;;;;;;;;;4994022;28;20086;-81
2021/10/03 01:45:25;;;;;;;17.52;14.32;;;;;;;;;;4979809;28;20076;-81
2021/10/03 01:48:05;;;;;;;21.13;15.52;;;;;;;;;;4987341;28;20758;-80
2021/10/03 01:50:34;;;;;;;19.52;14.52;;;;;;;;;;4988697;28;20116;-80
2021/10/03 01:53:01;;;;;;;19.60;14.07;;;;;;;;;;4951342;28;20049;-79
2021/10/03 01:55:27;;;;;;;19.30;13.77;;;;;;;;;;4965506;28;20029;-80
2021/10/03 01:57:56;;;;;;;17.38;13.45;;;;;;;;;;4971331;28;20041;-80
2021/10/03 02:00:23;;;;;;;18.45;13.05;;;;;;;;;;4973880;28;20121;-80
2021/10/03 02:03:00;;;;;;;17.27;13.48;;;;;;;;;;4979827;28;20036;-80
2021/10/03 02:05:27;;;;;;;19.67;13.32;;;;;;;;;;4991674;28;20042;-80
2021/10/03 02:07:54;;;;;;;18.27;14.00;;;;;;;;;;4978814;28;20041;-80
2021/10/03 02:10:25;;;;;;;18.33;13.88;;;;;;;;;;4991736;28;20038;-80
2021/10/03 02:12:53;;;;;;;16.50;12.98;;;;;;;;;;4971131;28;20033;-80
2021/10/03 02:15:20;;;;;;;19.25;13.95;;;;;;;;;;4951831;28;20049;-81
2021/10/03 02:17:47;;;;;;;17.60;13.25;;;;;;;;;;4986537;28;20084;-81
2021/10/03 02:20:17;;;;;;;19.50;14.50;;;;;;;;;;4969922;28;20088;-81
2021/10/03 02:22:44;;;;;;;22.30;13.45;;;;;;;;;;4973408;28;20065;-80
2021/10/03 02:25:11;;;;;;;15.73;11.82;;;;;;;;;;4980777;28;20036;-81
2021/10/03 02:27:38;;;;;;;16.63;12.82;;;;;;;;;;4958851;28;20080;-81
2021/10/03 02:30:07;;;;;;;15.82;12.13;;;;;;;;;;4982270;28;20040;-80
2021/10/03 02:32:38;;;;;;;18.00;13.48;;;;;;;;;;4968622;28;20069;-81
2021/10/03 02:35:10;;;;;;;18.83;13.70;;;;;;;;;;4985465;28;20491;-81
2021/10/03 02:37:37;;;;;;;18.02;13.30;;;;;;;;;;4966179;28;20042;-81
2021/10/03 02:40:05;;;;;;;15.95;12.80;;;;;;;;;;4982548;28;20034;-80
2021/10/03 02:42:32;;;;;;;20.85;13.90;;;;;;;;;;4973201;28;20120;-80
2021/10/03 02:44:58;;;;;;;17.27;13.50;;;;;;;;;;4961600;28;20037;-80
2021/10/03 02:47:25;;;;;;;16.90;13.02;;;;;;;;;;4955018;28;20034;-81
2021/10/03 02:49:53;;;;;;;18.98;13.52;;;;;;;;;;4954525;28;20038;-82
2021/10/03 02:52:19;;;;;;;18.95;13.75;;;;;;;;;;4970292;28;20046;-82
2021/10/03 02:54:45;;;;;;;;;;;;;;;;;;4970204;28;20073;-79
2021/10/03 02:57:11;;;;;;;20.60;14.30;;;;;;;;;;4941463;28;20000;-79
2021/10/03 02:59:38;;;;;;;16.60;13.38;;;;;;;;;;4970870;28;20058;-79
2021/10/03 03:02:06;;;;;;;18.35;13.02;;;;;;;;;;4963845;28;20030;-79
2021/10/03 03:04:32;;;;;;;17.30;12.80;;;;;;;;;;4951228;28;20049;-80
2021/10/03 03:06:59;;;;;;;21.48;14.20;;;;;;;;;;4974171;28;20686;-79
2021/10/03 03:09:25;;;;;;;16.90;13.68;;;;;;;;;;4964890;28;20038;-80
2021/10/03 03:11:51;;;;;;;15.90;12.35;;;;;;;;;;4958991;28;20030;-80
2021/10/03 03:14:17;;;;;;;;;;;;;;;;;;4954356;28;20042;-80
2021/10/03 03:16:48;;;;;;;20.48;13.45;;;;;;;;;;4961076;28;19922;-80
2021/10/03 03:19:15;;;;;;;17.23;13.35;;;;;;;;;;4979495;28;20179;-80
2021/10/03 03:21:42;;;;;;;17.48;12.30;;;;;;;;;;4963984;28;20027;-79
2021/10/03 03:24:10;;;;;;;18.02;13.75;;;;;;;;;;4951448;28;20579;-79
2021/10/03 03:26:39;;;;;;;17.25;12.00;;;;;;;;;;4978384;28;20558;-79
2021/10/03 03:29:06;;;;;;;17.58;12.00;;;;;;;;;;4954276;28;20110;-82
2021/10/03 03:31:34;;;;;;;18.75;11.82;;;;;;;;;;4976087;28;20034;-80
2021/10/03 03:34:00;;;;;;;18.75;12.55;;;;;;;;;;4989292;28;20038;-79
2021/10/03 03:36:26;;;;;;;;;;;;;;;;;;4983577;28;20651;-80
2021/10/03 03:38:52;;;;;;;18.17;12.27;;;;;;;;;;4974243;28;19913;-80
2021/10/03 03:41:20;;;;;;;20.10;13.63;;;;;;;;;;4983236;28;20049;-80
2021/10/03 03:43:46;;;;;;;16.67;11.10;;;;;;;;;;4971393;28;20819;-80
2021/10/03 03:46:14;;;;;;;15.98;10.68;;;;;;;;;;5011215;28;20793;-81
2021/10/03 03:48:41;;;;;;;16.77;11.95;;;;;;;;;;4997289;28;20082;-81
2021/10/03 03:51:09;;;;;;;17.73;12.00;;;;;;;;;;4993324;28;20052;-81
2021/10/03 03:53:36;;;;;;;16.30;11.48;;;;;;;;;;4989818;28;20104;-80
2021/10/03 03:56:04;;;;;;;16.10;11.15;;;;;;;;;;4986889;28;20113;-80
2021/10/03 03:58:32;;;;;;;15.00;10.93;;;;;;;;;;4991901;28;20026;-82
2021/10/03 04:00:59;;;;;;;17.08;11.40;;;;;;;;;;4981119;28;20030;-80
2021/10/03 04:03:25;;;;;;;17.20;11.18;;;;;;;;;;4976630;28;20049;-80
2021/10/03 04:05:53;;;;;;;;;;;;;;;;;;4987408;28;20034;-80
2021/10/03 04:08:23;;;;;;;15.38;10.45;;;;;;;;;;4964399;28;19914;-80
2021/10/03 04:10:50;;;;;;;17.27;11.52;;;;;;;;;;4983591;28;20380;-80
2021/10/03 04:13:18;;;;;;;15.02;10.32;;;;;;;;;;4979739;28;20038;-80
2021/10/03 04:15:44;;;;;;;14.45;9.68;;;;;;;;;;4965896;28;20076;-80
2021/10/03 04:18:10;;;;;;;;;;;;;;;;;;4978163;28;20026;-80
2021/10/03 04:20:36;;;;;;;15.20;10.40;;;;;;;;;;4984032;28;19917;-79
2021/10/03 04:23:02;;;;;;;18.27;11.20;;;;;;;;;;4961027;28;20019;-79
2021/10/03 04:25:30;;;;;;;17.05;10.25;;;;;;;;;;4982738;28;20026;-79
2021/10/03 04:27:57;;;;;;;18.33;11.13;;;;;;;;;;4975921;28;20026;-79
2021/10/03 04:30:23;;;;;;;15.57;10.45;;;;;;;;;;4966962;28;20034;-80
2021/10/03 04:32:51;;;;;;;18.48;10.95;;;;;;;;;;4983291;28;20030;-80
2021/10/03 04:35:17;;;;;;;18.08;10.13;;;;;;;;;;4976956;28;20026;-80
2021/10/03 04:37:44;;;;;;;14.50;9.35;;;;;;;;;;4978847;28;20033;-80
2021/10/03 04:40:12;;;;;;;14.13;9.23;;;;;;;;;;4951439;28;20072;-80
2021/10/03 04:42:40;;;;;;;13.63;8.20;;;;;;;;;;4976048;28;20025;-80
2021/10/03 04:45:06;;;;;;;13.65;9.63;;;;;;;;;;4971133;28;20114;-80
2021/10/03 04:47:33;;;;;;;15.57;9.57;;;;;;;;;;4963821;28;20030;-80
2021/10/03 04:50:00;;;;;;;13.60;9.73;;;;;;;;;;4976292;28;20026;-80
2021/10/03 04:52:27;;;;;;;13.70;9.65;;;;;;;;;;4984470;28;20502;-80
2021/10/03 04:54:56;;;;;;;15.00;9.75;;;;;;;;;;4981715;28;20593;-80
2021/10/03 04:57:22;;;;;;;16.27;10.52;;;;;;;;;;4978070;28;20030;-81
2021/10/03 04:59:49;;;;;;;;;;;;;;;;;;4967864;28;20046;-81
2021/10/03 05:02:15;;;;;;;13.77;9.75;;;;;;;;;;4959542;28;20526;-80
2021/10/03 05:04:41;;;;;;;16.08;9.50;;;;;;;;;;4973860;28;20153;-79
2021/10/03 05:07:07;;;;;;;;;;;;;;;;;;4983907;28;20022;-80
2021/10/03 05:09:33;;;;;;;14.82;9.45;;;;;;;;;;4979520;28;19909;-81
2021/10/03 05:12:01;;;;;;;13.73;9.70;;;;;;;;;;4970254;28;20072;-81
2021/10/03 05:14:28;;;;;;;12.95;8.73;;;;;;;;;;4980511;28;20030;-80
2021/10/03 05:16:56;;;;;;;15.32;9.38;;;;;;;;;;4971967;28;20439;-80
2021/10/03 05:19:22;;;;;;;13.82;8.95;;;;;;;;;;4985662;28;20040;-80
2021/10/03 05:21:48;;;;;;;;;;;;;;;;;;4979754;28;20029;-80
2021/10/03 05:24:14;;;;;;;14.57;9.27;;;;;;;;;;4976232;28;19922;-80
2021/10/03 05:26:42;;;;;;;13.95;9.57;;;;;;;;;;4982443;28;20100;-80
2021/10/03 05:29:09;;;;;;;12.82;8.20;;;;;;;;;;4968128;28;20065;-79
2021/10/03 05:31:35;;;;;;;14.02;8.82;;;;;;;;;;4992710;28;20041;-80
2021/10/03 05:34:02;;;;;;;11.80;8.38;;;;;;;;;;4972281;28;20045;-80
2021/10/03 05:36:28;;;;;;;14.88;8.98;;;;;;;;;;4970868;28;20511;-81
2021/10/03 05:38:56;;;;;;;13.57;9.15;;;;;;;;;;4984019;28;20033;-80
2021/10/03 05:41:28;;;;;;;15.27;9.38;;;;;;;;;;4980283;28;20246;-81
2021/10/03 05:43:56;;;;;;;15.20;8.80;;;;;;;;;;4992347;28;20037;-80
2021/10/03 05:46:35;;;;;;;19.08;9.95;;;;;;;;;;4985587;28;20029;-81
2021/10/03 05:49:02;;;;;;;16.95;11.48;;;;;;;;;;4977483;28;20129;-80
2021/10/03 05:51:30;;;;;;;20.10;11.95;;;;;;;;;;4984560;28;20053;-80
2021/10/03 05:53:59;;;;;;;18.52;11.13;;;;;;;;;;4964464;28;20117;-80
2021/10/03 05:56:25;;;;;;;19.27;11.00;;;;;;;;;;4990617;28;20080;-80
2021/10/03 05:58:52;;;;;;;19.17;11.95;;;;;;;;;;4999267;28;20042;-80
2021/10/03 06:01:19;;;;;;;21.23;11.02;;;;;;;;;;4982353;28;20058;-80
2021/10/03 06:03:47;;;;;;;16.40;11.00;;;;;;;;;;4986396;28;20037;-79
2021/10/03 06:06:13;;;;;;;18.15;10.48;;;;;;;;;;4980340;28;20022;-80
2021/10/03 06:08:40;;;;;;;19.27;13.40;;;;;;;;;;4967024;28;20040;-80
2021/10/03 06:11:06;;;;;;;20.10;13.57;;;;;;;;;;4980765;28;20056;-81
2021/10/03 06:13:34;;;;;;;20.27;13.20;;;;;;;;;;4952336;28;20032;-80
2021/10/03 06:16:02;;;;;;;17.50;11.48;;;;;;;;;;4959807;28;20034;-80
2021/10/03 06:18:28;;;;;;;18.23;12.02;;;;;;;;;;4981992;28;20404;-80
2021/10/03 06:20:54;;;;;;;16.15;11.07;;;;;;;;;;4983148;28;20032;-80
2021/10/03 06:23:22;;;;;;;16.23;10.20;;;;;;;;;;4962363;28;20595;-80
2021/10/03 06:25:49;;;;;;;15.13;9.60;;;;;;;;;;4963084;28;20677;-80
2021/10/03 06:28:15;;;;;;;15.85;9.18;;;;;;;;;;4964538;28;20046;-80
2021/10/03 06:30:41;;;;;;;;;;;;;;;;;;4964749;28;20042;-79
2021/10/03 06:33:07;;;;;;;16.95;9.30;;;;;;;;;;4964415;28;19917;-80
2021/10/03 06:35:34;;;;;;;16.38;10.55;;;;;;;;;;4965986;28;20518;-80
2021/10/03 06:38:00;;;;;;;;;;;;;;;;;;4976878;28;20058;-80
2021/10/03 06:40:26;;;;;;;16.00;10.00;;;;;;;;;;4967072;28;19924;-80
2021/10/03 06:42:52;;;;;;;17.60;10.27;;;;;;;;;;4965769;28;20038;-80
2021/10/03 06:45:19;;;;;;;20.33;11.52;;;;;;;;;;4970171;28;20037;-79
2021/10/03 06:47:50;;;;;;;16.15;9.77;;;;;;;;;;4978220;28;20351;-80
2021/10/03 06:50:19;;;;;;;17.27;9.88;;;;;;;;;;4962246;28;20037;-80
2021/10/03 06:52:48;;;;;;;14.02;8.95;;;;;;;;;;4969195;28;20038;-80
2021/10/03 06:55:15;;;;;;;15.20;10.02;;;;;;;;;;4964388;28;20479;-80
2021/10/03 06:57:42;;;;;;;17.98;9.45;;;;;;;;;;4970978;28;20586;-81
2021/10/03 07:00:11;;;;;;;15.35;9.35;;;;;;;;;;4983093;28;20100;-81
2021/10/03 07:02:40;;;;;;;14.20;9.50;;;;;;;;;;4985595;28;20084;-80
2021/10/03 07:05:07;;;;;;;15.98;8.65;;;;;;;;;;4968063;28;20109;-80
2021/10/03 07:07:34;;;;;;;14.90;9.35;;;;;;;;;;4954441;28;20134;-80
2021/10/03 07:10:01;;;;;;;16.58;10.27;;;;;;;;;;4968960;28;20036;-80
2021/10/03 07:12:28;;;;;;;14.43;8.55;;;;;;;;;;4989350;28;20059;-80
2021/10/03 07:14:56;;;;;;;15.02;9.60;;;;;;;;;;4985683;28;20030;-80
2021/10/03 07:17:23;;;;;;;16.05;11.20;;;;;;;;;;4983625;28;20038;-80
2021/10/03 07:19:50;;;;;;;21.02;12.77;;;;;;;;;;4970488;28;20028;-80
2021/10/03 07:22:16;;;;;;;22.60;17.48;;;;;;;;;;4960734;28;20060;-80
2021/10/03 07:24:44;;;;;;;20.10;13.05;;;;;;;;;;4987015;28;20161;-81
2021/10/03 07:27:13;;;;;;;15.82;10.45;;;;;;;;;;4980967;28;20025;-83
2021/10/03 07:29:40;;;;;;;12.98;8.90;;;;;;;;;;4989676;28;20034;-80
2021/10/03 07:32:11;;;;;;;12.85;8.68;;;;;;;;;;4986515;28;20296;-80
2021/10/03 07:34:38;;;;;;;13.38;8.05;;;;;;;;;;4966284;28;20040;-80
2021/10/03 07:37:06;;;;;;;15.93;8.70;;;;;;;;;;4954545;28;20052;-80
2021/10/03 07:39:34;;;;;;;12.38;7.47;;;;;;;;;;4984352;28;20125;-79
2021/10/03 07:42:03;;;;;;;12.85;7.72;;;;;;;;;;4943605;28;20034;-82
2021/10/03 07:44:30;;;;;;;12.88;7.07;;;;;;;;;;4972410;28;20030;-80
2021/10/03 07:46:56;;;;;;;15.20;7.43;;;;;;;;;;4965526;28;20062;-82
2021/10/03 07:49:26;;;;;;;14.73;8.15;;;;;;;;;;4973189;28;20155;-80
2021/10/03 07:51:52;;;;;;;13.07;7.55;;;;;;;;;;4969915;28;20068;-80
2021/10/03 07:54:19;;;;;;;12.18;6.10;;;;;;;;;;4976031;28;21055;-81
2021/10/03 07:56:45;;;;;;;12.50;7.20;;;;;;;;;;4969103;28;20033;-80
2021/10/03 07:59:11;;;;;;;11.25;6.22;;;;;;;;;;4966549;28;20073;-80
2021/10/03 08:01:39;;;;;;;18.23;7.80;;;;;;;;;;4970288;28;20053;-81
2021/10/03 08:04:05;;;;;;;11.88;6.53;;;;;;;;;;4968523;28;20037;-81
2021/10/03 08:06:33;;;;;;;14.27;6.95;;;;;;;;;;4958090;28;20033;-81
2021/10/03 08:09:00;;;;;;;12.25;6.43;;;;;;;;;;4982705;28;21865;-81
2021/10/03 08:11:29;;;;;;;12.02;7.18;;;;;;;;;;4984246;28;20033;-81
2021/10/03 08:13:57;;;;;;;12.93;5.90;;;;;;;;;;4982903;28;20038;-81
2021/10/03 08:16:23;;;;;;;10.98;6.20;;;;;;;;;;4964711;28;20463;-80
2021/10/03 08:18:51;;;;;;;11.63;6.15;;;;;;;;;;4964012;28;20027;-80
2021/10/03 08:21:22;;;;;;;12.10;6.07;;;;;;;;;;4957135;28;20069;-80
2021/10/03 08:23:48;;;;;;;12.73;6.05;;;;;;;;;;4973653;28;20137;-80
2021/10/03 08:26:15;;;;;;;12.15;6.28;;;;;;;;;;4962563;28;20061;-80
2021/10/03 08:28:42;;;;;;;12.05;6.03;;;;;;;;;;4981925;28;20018;-81
2021/10/03 08:31:09;;;;;;;11.68;5.88;;;;;;;;;;4956513;28;20087;-81
2021/10/03 08:33:35;;;;;;;9.93;5.88;;;;;;;;;;4974036;28;20041;-80
2021/10/03 08:36:01;;;;;;;12.23;6.65;;;;;;;;;;4961899;28;20038;-80
2021/10/03 08:38:27;;;;;;;11.30;5.47;;;;;;;;;;4962458;28;20034;-81
2021/10/03 08:40:55;;;;;;;12.60;5.90;;;;;;;;;;4978871;28;20022;-80
2021/10/03 08:43:22;;;;;;;10.93;5.88;;;;;;;;;;4983887;28;20026;-81
2021/10/03 08:45:50;;;;;;;10.68;5.18;;;;;;;;;;4978750;28;20038;-81
2021/10/03 08:48:17;;;;;;;10.10;5.35;;;;;;;;;;4968533;28;21035;-81
2021/10/03 08:50:47;;;;;;;14.77;6.15;;;;;;;;;;4997607;23;20039;-84
2021/10/03 08:53:15;;;;;;;10.13;5.35;;;;;;;;;;4992911;28;20055;-83
2021/10/03 08:56:06;;;;;;;10.50;4.75;;;;;;;;;;5003703;28;20072;-84
2021/10/03 08:58:33;;;;;;;10.15;5.18;;;;;;;;;;4972084;28;20047;-83
2021/10/03 09:01:04;;;;;;;9.23;4.50;;;;;;;;;;4975569;28;20034;-84
2021/10/03 09:03:30;;;;;;;11.60;6.20;;;;;;;;;;4951560;28;20045;-84
2021/10/03 09:05:57;;;;;;;11.13;5.60;;;;;;;;;;4962664;28;20117;-88
2021/10/03 09:08:25;;;;;;;11.82;5.20;;;;;;;;;;4956874;28;20041;-84
2021/10/03 09:10:59;;;;;;;9.82;4.63;;;;;;;;;;4962060;28;20294;-85
2021/10/03 09:13:28;;;;;;;9.35;4.82;;;;;;;;;;4969539;28;20030;-85
2021/10/03 09:16:21;;;;;;;12.13;7.63;;;;;;;;;;4968487;28;20041;-89
2021/10/03 09:18:47;;;;;;;9.80;4.35;;;;;;;;;;4966471;28;20192;-84
2021/10/03 09:21:36;;;;;;;10.18;4.70;;;;;;;;;;4985232;28;20034;-85
2021/10/03 09:24:13;;;;;;;10.48;5.18;;;;;;;;;;4981972;28;20042;-85
2021/10/03 09:27:00;;;;;;;10.23;4.88;;;;;;;;;;4973622;28;20073;-84
2021/10/03 09:29:32;;;;;;;10.48;5.57;;;;;;;;;;4984426;28;20060;-82
2021/10/03 09:32:05;;;;;;;11.32;5.30;;;;;;;;;;4981769;28;20034;-85
2021/10/03 09:35:04;;;;;;;;;;;;;;;;;;;;;
2021/10/03 09:37:45;;;;;;;10.15;5.72;;;;;;;;;;4993553;28;20843;-86
2021/10/03 09:40:14;;;;;;;10.45;5.72;;;;;;;;;;4985250;28;20038;-87
2021/10/03 09:42:41;;;;;;;9.48;5.13;;;;;;;;;;4990235;28;20030;-88
2021/10/03 09:45:14;;;;;;;11.20;5.00;;;;;;;;;;5012356;28;20072;-85
2021/10/03 09:47:41;;;;;;;10.52;5.28;;;;;;;;;;5003722;28;20105;-83
2021/10/03 09:50:10;;;;;;;13.18;5.70;;;;;;;;;;4988130;28;20038;-83
2021/10/03 09:52:37;;;;;;;10.60;5.00;;;;;;;;;;4992244;28;20069;-82
2021/10/03 09:55:05;;;;;;;9.68;4.68;;;;;;;;;;4972948;28;20092;-85
2021/10/03 09:57:33;;;;;;;10.38;4.78;;;;;;;;;;4989961;28;20049;-82
2021/10/03 10:00:01;;;;;;;9.57;5.15;;;;;;;;;;4984159;28;20076;-84
2021/10/03 10:02:27;;;;;;;9.07;4.47;;;;;;;;;;4988502;28;20080;-84
2021/10/03 10:04:54;;;;;;;8.85;4.65;;;;;;;;;;4991265;28;20032;-84
2021/10/03 10:07:22;;;;;;;9.68;4.60;;;;;;;;;;4982234;28;20425;-84
2021/10/03 10:09:48;;;;;;;10.23;4.93;;;;;;;;;;4989258;28;20088;-83
2021/10/03 10:12:20;;;;;;;9.07;4.45;;;;;;;;;;4988925;28;20814;-83
2021/10/03 10:14:47;;;;;;;9.85;4.70;;;;;;;;;;4997306;28;20644;-83
2021/10/03 10:17:29;;;;;;;9.52;4.80;;;;;;;;;;4980856;28;20422;-81
2021/10/03 10:19:56;;;;;;;10.50;4.60;;;;;;;;;;4987771;28;20857;-82
2021/10/03 10:22:28;;;;;;;9.18;4.80;;;;;;;;;;4988179;28;20027;-83
2021/10/03 10:25:01;;;;;;;9.98;4.60;;;;;;;;;;4981508;28;20038;-83
2021/10/03 10:27:30;;;;;;;9.52;4.60;;;;;;;;;;4984594;28;20042;-83
2021/10/03 10:30:00;;;;;;;9.02;4.47;;;;;;;;;;4980031;28;20038;-83
2021/10/03 10:32:27;;;;;;;9.45;4.82;;;;;;;;;;4984401;28;20038;-83
2021/10/03 10:35:09;;;;;;;12.48;4.45;;;;;;;;;;4980801;28;20040;-83
2021/10/03 10:37:56;;;;;;;11.40;4.70;;;;;;;;;;4983585;28;20192;-85
2021/10/03 10:40:26;;;;;;;8.52;4.45;;;;;;;;;;4987762;28;20514;-83
2021/10/03 10:43:05;;;;;;;8.93;4.38;;;;;;;;;;4990632;28;20129;-83
2021/10/03 10:45:33;;;;;;;10.60;4.70;;;;;;;;;;4987212;28;20713;-84
2021/10/03 10:48:15;;;;;;;8.65;4.30;;;;;;;;;;4996165;28;20426;-84
2021/10/03 10:51:01;;;;;;;8.68;4.90;;;;;;;;;;5002874;28;20044;-83
2021/10/03 10:53:31;;;;;;;10.43;4.70;;;;;;;;;;4993516;28;20989;-83
2021/10/03 10:56:09;;;;;;;11.45;5.00;;;;;;;;;;4990781;28;20037;-83
2021/10/03 10:58:37;;;;;;;9.85;4.78;;;;;;;;;;4989445;28;20064;-85
2021/10/03 11:01:06;;;;;;;11.15;4.72;;;;;;;;;;4978365;28;20688;-84
2021/10/03 11:03:42;;;;;;;9.93;5.32;;;;;;;;;;5012212;28;20152;-83
2021/10/03 11:06:20;;;;;;;12.60;5.50;;;;;;;;;;5010097;28;20064;-82
2021/10/03 11:09:06;;;;;;;9.82;4.53;;;;;;;;;;4970349;28;20196;-84
2021/10/03 11:11:39;;;;;;;10.30;4.68;;;;;;;;;;4988248;28;20043;-83
2021/10/03 11:14:05;;;;;;;11.07;4.43;;;;;;;;;;4987357;28;20096;-84
2021/10/03 11:16:32;;;;;;;10.27;4.53;;;;;;;;;;4991119;28;20060;-84
2021/10/03 11:19:00;;;;;;;10.55;4.35;;;;;;;;;;4992175;28;20041;-83
2021/10/03 11:21:30;;;;;;;10.60;4.70;;;;;;;;;;4983645;28;20040;-83
2021/10/03 11:23:58;;;;;;;8.60;4.28;;;;;;;;;;4984464;28;20030;-84
2021/10/03 11:26:24;;;;;;;10.68;4.47;;;;;;;;;;4991617;28;20042;-83
2021/10/03 11:28:51;;;;;;;11.15;4.18;;;;;;;;;;4985174;28;20045;-82
2021/10/03 11:31:37;;;;;;;9.75;4.60;;;;;;;;;;4981499;28;20037;-82
2021/10/03 11:34:03;;;;;;;;;;;;;;;;;;4984086;28;20037;-82
2021/10/03 11:36:30;;;;;;;9.98;3.75;;;;;;;;;;4981812;28;19922;-83
2021/10/03 11:38:57;;;;;;;10.38;4.43;;;;;;;;;;5002054;28;20033;-84
2021/10/03 11:41:24;;;;;;;9.95;4.00;;;;;;;;;;4984856;28;20031;-81
2021/10/03 11:43:51;;;;;;;8.25;3.90;;;;;;;;;;4983724;28;20228;-84
2021/10/03 11:46:17;;;;;;;7.95;3.78;;;;;;;;;;4987055;28;20082;-82
2021/10/03 11:48:43;;;;;;;10.00;4.50;;;;;;;;;;4981051;28;20866;-82
2021/10/03 11:51:09;;;;;;;8.32;3.80;;;;;;;;;;4983025;28;20356;-82
2021/10/03 11:53:47;;;;;;;9.68;4.30;;;;;;;;;;4987298;28;20042;-84
2021/10/03 11:56:17;;;;;;;10.15;4.15;;;;;;;;;;4975794;28;20503;-83
2021/10/03 11:58:45;;;;;;;8.60;3.92;;;;;;;;;;4985800;28;20026;-83
2021/10/03 12:01:11;;;;;;;8.38;4.28;;;;;;;;;;4982141;28;20033;-82
2021/10/03 12:03:47;;;;;;;9.52;4.18;;;;;;;;;;4985564;28;20115;-84
2021/10/03 12:06:17;;;;;;;9.55;3.80;;;;;;;;;;4981658;28;20037;-83
2021/10/03 12:08:46;;;;;;;9.40;4.18;;;;;;;;;;4984901;28;20434;-84
2021/10/03 12:11:12;;;;;;;9.13;3.50;;;;;;;;;;4982807;28;20037;-82
2021/10/03 12:13:59;;;;;;;9.73;4.28;;;;;;;;;;4988937;28;20033;-83
2021/10/03 12:16:26;;;;;;;10.68;4.53;;;;;;;;;;5015827;28;20049;-82
2021/10/03 12:19:16;;;;;;;19.50;15.27;;;;;;;;;;4986307;28;20030;-83
2021/10/03 12:21:43;;;;;;;8.82;4.18;;;;;;;;;;4990867;28;20034;-80
2021/10/03 12:24:11;;;;;;;11.57;4.57;;;;;;;;;;4984515;28;20026;-79
2021/10/03 12:26:46;;;;;;;10.15;6.10;;;;;;;;;;4987757;28;20030;-80
2021/10/03 12:29:19;;;;;;;9.02;4.15;;;;;;;;;;4980863;28;20437;-82
2021/10/03 12:31:50;;;;;;;10.43;4.38;;;;;;;;;;4984957;28;20089;-80
2021/10/03 12:34:16;;;;;;;10.95;4.72;;;;;;;;;;4979052;28;20032;-80
2021/10/03 12:36:55;;;;;;;10.05;4.25;;;;;;;;;;4990096;28;20034;-80
2021/10/03 12:39:22;;;;;;;9.07;3.95;;;;;;;;;;4981222;28;20034;-80
2021/10/03 12:41:53;;;;;;;10.38;4.28;;;;;;;;;;4980304;28;20093;-80
2021/10/03 12:44:27;;;;;;;12.02;4.50;;;;;;;;;;4973546;28;20475;-82
2021/10/03 12:46:53;;;;;;;10.93;4.30;;;;;;;;;;4971459;28;20030;-80
2021/10/03 12:49:19;;;;;;;10.20;4.13;;;;;;;;;;4995135;28;20775;-81
2021/10/03 12:51:47;;;;;;;9.23;4.35;;;;;;;;;;4990769;28;20073;-80
2021/10/03 12:54:15;;;;;;;9.38;4.50;;;;;;;;;;4977440;28;20589;-80
2021/10/03 12:56:41;;;;;;;10.35;4.30;;;;;;;;;;4991815;28;20042;-80
2021/10/03 12:59:07;;;;;;;10.45;4.55;;;;;;;;;;4990315;28;20041;-80
2021/10/03 13:01:34;;;;;;;10.30;5.00;;;;;;;;;;4980989;28;20117;-80
2021/10/03 13:04:01;;;;;;;10.25;5.10;;;;;;;;;;4986791;28;20133;-79
2021/10/03 13:06:28;;;;;;;10.45;4.53;;;;;;;;;;4985214;28;20455;-81
2021/10/03 13:08:54;;;;;;;9.45;4.45;;;;;;;;;;4981642;28;20117;-79
2021/10/03 13:11:21;;;;;;;11.38;4.47;;;;;;;;;;4986990;28;20131;-81
2021/10/03 13:13:48;;;;;;;9.77;4.50;;;;;;;;;;4985829;28;20038;-80
2021/10/03 13:16:17;;;;;;;9.98;4.53;;;;;;;;;;4989350;28;20524;-80
2021/10/03 13:18:43;;;;;;;10.95;4.95;;;;;;;;;;4990399;28;20038;-79
2021/10/03 13:21:09;;;;;;;9.85;4.30;;;;;;;;;;4977618;28;20743;-80
2021/10/03 13:23:38;;;;;;;10.50;4.53;;;;;;;;;;4989507;28;20845;-80
2021/10/03 13:26:04;;;;;;;13.88;5.78;;;;;;;;;;4979056;28;20034;-80
2021/10/03 13:28:31;;;;;;;10.52;4.80;;;;;;;;;;4991791;28;20030;-80
2021/10/03 13:31:01;;;;;;;14.43;4.93;;;;;;;;;;4987175;28;20041;-81
2021/10/03 13:33:28;;;;;;;11.90;4.70;;;;;;;;;;4993078;28;20085;-80
2021/10/03 13:35:57;;;;;;;11.95;4.75;;;;;;;;;;4985755;28;20071;-82
2021/10/03 13:38:23;;;;;;;10.23;4.63;;;;;;;;;;5000295;28;20109;-82
2021/10/03 13:40:52;;;;;;;14.00;9.05;;;;;;;;;;4984099;28;20030;-79
2021/10/03 13:43:18;;;;;;;10.55;4.82;;;;;;;;;;4980329;28;20022;-79
2021/10/03 13:45:46;;;;;;;12.95;6.72;;;;;;;;;;4978298;28;20030;-81
2021/10/03 13:48:15;;;;;;;13.75;5.65;;;;;;;;;;4978758;28;20036;-82
2021/10/03 13:50:43;;;;;;;11.30;6.22;;;;;;;;;;4971675;28;20030;-80
2021/10/03 13:53:10;;;;;;;13.93;8.00;;;;;;;;;;4955194;28;20109;-81
2021/10/03 13:55:36;;;;;;;11.82;6.75;;;;;;;;;;4944173;28;20045;-79
2021/10/03 13:58:08;;;;;;;10.48;5.40;;;;;;;;;;4957521;28;20027;-79
2021/10/03 14:00:36;;;;;;;11.27;5.40;;;;;;;;;;4958276;28;20027;-80
2021/10/03 14:03:03;;;;;;;10.82;6.30;;;;;;;;;;4955724;28;20066;-80
2021/10/03 14:05:31;;;;;;;13.13;5.13;;;;;;;;;;4960809;28;20126;-80
2021/10/03 14:07:58;;;;;;;12.48;5.07;;;;;;;;;;4947193;28;20076;-80
2021/10/03 14:10:26;;;;;;;11.05;5.40;;;;;;;;;;4946238;28;20035;-80
2021/10/03 14:12:55;;;;;;;11.07;5.32;;;;;;;;;;4979436;28;20041;-81
2021/10/03 14:15:26;;;;;;;12.68;7.00;;;;;;;;;;4962402;28;20563;-80
2021/10/03 14:17:53;;;;;;;11.93;5.75;;;;;;;;;;4955152;28;20112;-80
2021/10/03 14:20:31;;;;;;;10.23;5.18;;;;;;;;;;4956182;28;20061;-80
2021/10/03 14:22:58;;;;;;;10.27;4.45;;;;;;;;;;4959441;28;20076;-80
2021/10/03 14:25:24;;;;;;;10.38;4.93;;;;;;;;;;4961688;28;20669;-80
2021/10/03 14:27:50;;;;;;;11.30;5.68;;;;;;;;;;4962879;28;20022;-80
2021/10/03 14:30:18;;;;;;;12.30;5.80;;;;;;;;;;4959157;28;20047;-79
2021/10/03 14:32:45;;;;;;;12.45;5.70;;;;;;;;;;4957337;28;20975;-79
2021/10/03 14:35:13;;;;;;;11.98;5.32;;;;;;;;;;4954692;28;20125;-79
2021/10/03 14:37:40;;;;;;;11.38;5.63;;;;;;;;;;4967384;28;20650;-78
2021/10/03 14:40:08;;;;;;;11.07;5.80;;;;;;;;;;4959709;28;20015;-79